Latest Coastal Weather Observations for Alva Beach

IDQ60701

Issued at 2:52 am EST Friday 5 March 2021 (issued every 10 minutes, with the page automatically refreshed every 10 minutes)

About coastal observations | Map of coastal stations | Coastal observations for QLD | Marine services | Other Formats
Station Details ID: 033295 Name: ALVA BEACH Lat: -19.46 Lon: 147.48 Height: 7.5 m
Data from the previous 72 hours. | See also: Recent months at Alva Beach
Date/Time
EST
Wind Sea
Height
m
Swell Vis
km
Cloud Weather Temp
°C
Press
MSL
hPa
Rain since
9am
mm
Dir  Spd
kts
Gust
kts
Height
m
Period
s
Dir
05/02:30am SSW 5 8 - - - - - - - 23.8 1004.1 0.0
05/02:00am SSW 5 7 - - - - - - - 23.8 1004.2 0.0
05/01:30am SSW 5 6 - - - - - - - 23.9 1004.3 0.0
05/01:00am SSW 5 7 - - - - - - - 23.9 1004.5 0.0
05/12:30am SW 4 7 - - - - - - - 24.0 1004.5 0.0
05/12:00am SSW 5 7 - - - - - - - 24.5 1004.8 0.0
 
Date/Time
EST
Wind Sea
Height
m
Swell Vis
km
Cloud Weather Temp
°C
Press
MSL
hPa
Rain since
9am
mm
Dir  Spd
kts
Gust
kts
Height
m
Period
s
Dir
04/11:30pm S 4 8 - - - - - - - 25.1 1005.0 0.0
04/11:00pm S 5 9 - - - - - - - 25.5 1005.3 0.0
04/10:30pm SE 7 13 - - - - - - - 25.7 1005.2 0.0
04/10:00pm SSE 8 17 - - - - - - - 25.9 1005.0 0.0
04/09:30pm SE 10 17 - - - - - - - 26.0 1004.9 0.0
04/09:00pm SE 13 20 - - - - - - - 26.3 1004.6 0.0
04/08:30pm SE 16 24 - - - - - - - 26.6 1003.9 0.0
04/08:00pm SE 16 26 - - - - - - - 27.0 1003.5 0.0
04/07:46pm SE 16 26 - - - - - - - 26.9 1003.3 0.0
04/07:30pm SE 15 23 - - - - - - - 26.9 1003.4 0.0
04/07:00pm ESE 13 19 - - - - - - - 26.8 1003.1 0.0
04/06:30pm SE 13 21 - - - - - - - 27.2 1002.9 0.0
04/06:10pm ESE 15 25 - - - - - - - 27.5 1002.7 0.0
04/06:00pm ESE 15 24 - - - - - - - 27.6 1002.6 0.0
04/05:49pm ESE 15 25 - - - - - - - 27.6 1002.6 0.0
04/05:30pm ESE 15 22 - - - - - - - 28.2 1002.4 0.0
04/05:00pm ESE 13 19 - - - - - - - 28.8 1001.8 0.0
04/04:30pm ESE 13 23 - - - - - - - 29.1 1001.6 0.0
04/04:00pm SE 12 19 - - - - - - - 29.6 1001.3 0.0
04/03:30pm ESE 11 18 - - - - - - - 30.1 1001.3 0.0
04/03:00pm ESE 10 16 - - - - - - - 30.5 1001.2 0.0
04/02:30pm ESE 10 14 - - - - - - - 30.6 1001.5 0.0
04/02:00pm ESE 10 17 - - - - - - - 30.7 1001.9 0.0
04/01:30pm ESE 11 16 - - - - - - - 30.7 1002.1 0.0
04/01:00pm ESE 11 19 - - - - - - - 30.7 1002.5 0.0
04/12:30pm ESE 11 14 - - - - - - - 30.3 1002.9 0.0
04/12:00pm SE 11 16 - - - - - - - 30.3 1003.1 0.0
04/11:30am SE 11 16 - - - - - - - 30.1 1003.5 0.0
04/11:00am SE 8 15 - - - - - - - 29.5 1003.7 0.0
04/10:30am SE 10 15 - - - - - - - 29.4 1004.2 0.0
04/10:00am SSE 9 17 - - - - - - - 29.2 1004.3 0.0
04/09:30am SE 9 14 - - - - - - - 28.7 1004.7 0.0
04/09:00am SE 9 15 - - - - - - - 27.8 1004.4 0.0
04/08:30am SSE 7 13 - - - - - - - 28.4 1004.4 0.0
04/08:00am S 7 12 - - - - - - - 27.3 1003.9 0.0
04/07:30am S 7 13 - - - - - - - 26.0 1003.6 0.0
04/07:00am SSW 7 10 - - - - - - - 24.8 1003.3 0.0
04/06:30am SSW 6 9 - - - - - - - 23.9 1003.0 0.0
04/06:00am SSW 5 9 - - - - - - - 24.0 1003.0 0.0
04/05:30am SSW 5 9 - - - - - - - 24.1 1002.9 0.0
04/05:00am SSW 5 9 - - - - - - - 24.1 1002.9 0.0
04/04:30am SSW 5 9 - - - - - - - 24.4 1002.6 0.0
04/04:00am SSW 6 9 - - - - - - - 25.1 1002.5 0.0
04/03:30am SSE 9 16 - - - - - - - 26.7 1002.2 0.0
04/03:00am SSE 9 17 - - - - - - - 26.7 1002.0 0.0
04/02:30am SE 12 18 - - - - - - - 26.9 1002.3 0.0
04/02:00am SE 13 19 - - - - - - - 27.0 1002.5 0.0
04/01:30am SE 12 19 - - - - - - - 27.0 1002.6 0.0
04/01:00am SE 12 20 - - - - - - - 27.0 1003.2 0.0
04/12:30am SE 13 21 - - - - - - - 27.1 1003.7 0.0
04/12:00am SE 13 19 - - - - - - - 27.1 1003.8 0.0
 
Date/Time
EST
Wind Sea
Height
m
Swell Vis
km
Cloud Weather Temp
°C
Press
MSL
hPa
Rain since
9am
mm
Dir  Spd
kts
Gust
kts
Height
m
Period
s
Dir
03/11:30pm SE 12 19 - - - - - - - 27.3 1003.7 0.0
03/11:00pm SE 13 20 - - - - - - - 27.2 1003.8 0.0
03/10:30pm SE 12 19 - - - - - - - 27.3 1004.1 0.0
03/10:00pm ESE 13 19 - - - - - - - 27.3 1004.0 0.0
03/09:30pm SE 13 20 - - - - - - - 27.6 1004.1 0.0
03/09:00pm ESE 12 18 - - - - - - - 27.5 1003.8 0.0
03/08:30pm SE 13 20 - - - - - - - 27.7 1003.6 0.0
03/08:00pm ESE 13 21 - - - - - - - 27.8 1003.2 0.0
03/07:30pm ESE 12 19 - - - - - - - 27.9 1003.3 0.0
03/07:00pm SE 12 20 - - - - - - - 28.1 1003.1 0.0
03/06:30pm ESE 11 17 - - - - - - - 28.2 1003.0 0.0
03/06:00pm ESE 11 17 - - - - - - - 28.4 1002.7 0.0
03/05:30pm ESE 13 19 - - - - - - - 28.6 1002.7 0.0
03/05:00pm ESE 15 21 - - - - - - - 29.0 1002.3 0.0
03/04:30pm ESE 16 20 - - - - - - - 29.5 1002.3 0.0
03/04:00pm ESE 14 21 - - - - - - - 30.0 1002.0 0.0
03/03:30pm ESE 11 16 - - - - - - - 30.3 1002.1 0.0
03/03:00pm ESE 11 17 - - - - - - - 30.3 1002.5 0.0
03/02:30pm ESE 11 15 - - - - - - - 30.5 1002.9 0.0
03/02:00pm ESE 9 14 - - - - - - - 30.5 1003.4 0.0
03/01:30pm ESE 9 14 - - - - - - - 30.8 1003.8 0.0
03/01:00pm SE 11 16 - - - - - - - 30.8 1004.1 0.0
03/12:30pm SE 12 17 - - - - - - - 31.0 1004.5 0.0
03/12:00pm SE 9 18 - - - - - - - 31.2 1004.8 0.0
03/11:30am SSE 9 17 - - - - - - - 30.2 1005.1 0.0
03/11:00am SSE 10 18 - - - - - - - 29.8 1005.4 0.0
03/10:30am SSE 8 18 - - - - - - - 29.3 1005.6 0.0
03/10:00am S 8 15 - - - - - - - 29.0 1005.8 0.0
03/09:30am S 8 14 - - - - - - - 28.2 1005.9 0.0
03/09:00am S 7 14 - - - - - - - 28.2 1006.2 1.2
03/08:30am S 7 14 - - - - - - - 27.4 1006.0 1.2
03/08:00am S 7 10 - - - - - - - 26.2 1005.9 1.2
03/07:30am S 6 10 - - - - - - - 25.4 1005.6 1.2
03/07:00am S 6 10 - - - - - - - 24.8 1004.9 1.2
03/06:30am S 5 9 - - - - - - - 24.6 1004.6 1.2
03/06:00am SSW 5 8 - - - - - - - 24.5 1004.2 1.2
03/05:30am S 5 9 - - - - - - - 24.8 1004.0 1.2
03/05:00am S 6 10 - - - - - - - 24.9 1003.8 1.2
03/04:30am S 6 8 - - - - - - - 24.9 1003.6 1.2
03/04:00am S 6 9 - - - - - - - 24.8 1003.6 1.2
03/03:30am S 5 8 - - - - - - - 24.8 1003.4 1.2
03/03:00am S 5 9 - - - - - - - 25.2 1003.6 1.2
03/02:30am SSE 6 9 - - - - - - - 25.5 1003.6 1.2
03/02:00am SSE 6 10 - - - - - - - 25.7 1003.9 1.2
03/01:30am S 6 9 - - - - - - - 26.0 1004.0 1.2
03/01:00am SE 9 17 - - - - - - - 26.7 1003.9 1.2
03/12:30am SE 11 15 - - - - - - - 27.0 1004.6 1.2
03/12:00am SE 12 20 - - - - - - Recent precip. 27.2 1004.7 1.2
 
Date/Time
EST
Wind Sea
Height
m
Swell Vis
km
Cloud Weather Temp
°C
Press
MSL
hPa
Rain since
9am
mm
Dir  Spd
kts
Gust
kts
Height
m
Period
s
Dir
02/11:30pm ESE 13 19 - - - - - - - 27.1 1004.9 1.2
02/11:00pm SE 13 18 - - - - - - - 27.2 1005.1 1.0
02/10:30pm SE 12 18 - - - - - - - 27.1 1005.2 1.0
02/10:00pm SE 15 24 - - - - - - - 27.3 1005.2 1.0
02/09:30pm ESE 14 24 - - - - - - - 27.5 1005.1 1.0
02/09:00pm ESE 11 16 - - - - - - - 27.4 1004.8 1.0
02/08:30pm ESE 12 20 - - - - - - - 27.6 1004.2 1.0
02/08:00pm SE 12 17 - - - - - - - 27.4 1003.8 1.0
02/07:30pm SSE 7 12 - - - - - - - 26.5 1003.7 1.0
02/07:00pm ESE 13 20 - - - - - - - 26.9 1003.6 1.0
02/06:30pm ESE 15 22 - - - - - - - 26.4 1003.4 1.0
02/06:00pm SE 14 21 - - - - - - Recent precip. 26.8 1003.3 1.0
02/05:30pm SE 15 22 - - - - - - - 26.8 1003.1 1.0
02/05:00pm ESE 14 20 - - - - - - - 26.8 1003.1 0.8
02/04:30pm ESE 16 24 - - - - - - - 27.1 1002.9 0.6
02/04:00pm ESE 12 18 - - - - - - - 26.7 1002.8 0.6
02/03:30pm ESE 14 21 - - - - - - - 26.7 1002.8 0.0
02/03:00pm ESE 14 22 - - - - - - - 28.1 1002.9 0.0
02/02:30pm ESE 12 19 - - - - - - - 28.1 1003.0 0.0
02/02:00pm ESE 7 12 - - - - - - - 28.9 1003.2 0.0
02/01:30pm SE 9 14 - - - - - - - 28.9 1003.4 0.0
02/01:00pm SE 9 14 - - - - - - - 28.7 1003.6 0.0
02/12:30pm SE 9 16 - - - - - - - 28.9 1003.8 0.0
02/12:00pm SE 10 20 - - - - - - - 28.9 1004.3 0.0
02/11:30am SSE 9 16 - - - - - - - 28.9 1004.5 0.0
02/11:00am SSE 10 18 - - - - - - - 28.4 1004.5 0.0
02/10:30am SSW 7 14 - - - - - - - 28.4 1004.8 0.0
02/10:00am S 7 11 - - - - - - - 28.4 1005.2 0.0
02/09:30am SSW 6 9 - - - - - - - 26.4 1005.3 0.0
02/09:00am SSW 5 9 - - - - - - - 25.4 1005.2 30.4
02/08:30am SSW 4 6 - - - - - - - 24.5 1005.3 30.4
02/08:00am SSW 4 7 - - - - - - - 24.1 1005.0 30.4
02/07:30am SSW 5 7 - - - - - - - 23.7 1004.7 30.4
02/07:00am SSW 5 8 - - - - - - - 23.8 1004.4 30.4
02/06:30am SSW 4 6 - - - - - - - 23.7 1004.2 30.4
02/06:00am SE 5 7 - - - - - - Rain 23.8 1004.0 30.2
02/05:30am E 10 15 - - - - - - - 24.6 1003.6 26.8
02/05:00am SSE 3 7 - - - - - - - 24.3 1003.3 24.0
02/04:30am SSW 6 10 - - - - - - - 24.6 1002.9 22.2
02/04:00am S 5 9 - - - - - - - 24.6 1002.9 22.2
02/03:30am SE 9 15 - - - - - - - 26.3 1003.0 22.2
02/03:00am SE 9 15 - - - - - - - 26.3 1003.1 22.2

Other formats

Comma delimited format used in spreadsheet applications
http://www.bom.gov.au/fwo/IDQ60701/IDQ60701.95296.axf

JavaScript Object Notation format (JSON) in row-major order
http://www.bom.gov.au/fwo/IDQ60701/IDQ60701.95296.json

Data quality

Most of these data are generated automatically and are frequently updated. Quality checks on data are not normally performed. It is possible for incorrect values to appear. Refer to information at About Latest Weather Observations and please check the disclaimer before using these data.